Time;durP1;ratioP1;P1;durP2;ratioP2;P2;SDS_P1;SDS_P2;PMS_P1;PMS_P2;Temp;Humidity;BMP_temperature;BMP_pressure;BME280_temperature;BME280_humidity;BME280_pressure;Samples;Min_cycle;Max_cycle;Signal;HPM_P1;HPM_P2
2022/08/20 00:00:56;;;;;;;11.55;7.32;;;21.70;99.90;;;;;;4979369;28;20046;-70
2022/08/20 00:03:41;;;;;;;10.35;7.97;;;21.70;99.90;;;;;;4980046;28;20158;-70
2022/08/20 00:06:13;;;;;;;10.70;7.65;;;21.80;99.90;;;;;;4979728;28;20077;-70
2022/08/20 00:08:40;;;;;;;11.52;8.45;;;21.70;99.90;;;;;;4980053;28;20089;-70
2022/08/20 00:11:09;;;;;;;10.75;7.78;;;21.70;99.90;;;;;;4979576;28;20049;-70
2022/08/20 00:13:39;;;;;;;14.93;10.63;;;21.70;99.90;;;;;;4979890;28;20077;-70
2022/08/20 00:16:06;;;;;;;13.43;8.82;;;21.70;99.90;;;;;;4979550;28;20046;-70
2022/08/20 00:18:32;;;;;;;11.02;8.13;;;21.60;99.90;;;;;;4979537;28;20047;-71
2022/08/20 00:20:59;;;;;;;11.02;7.90;;;21.70;99.90;;;;;;4979713;28;20046;-70
2022/08/20 00:23:25;;;;;;;10.95;6.70;;;21.60;99.90;;;;;;4979575;28;20125;-70
2022/08/20 00:25:52;;;;;;;10.73;7.32;;;21.60;99.90;;;;;;4979169;28;20123;-70
2022/08/20 00:28:17;;;;;;;11.45;7.75;;;21.50;99.90;;;;;;4979320;28;20314;-70
2022/08/20 00:30:45;;;;;;;10.70;6.82;;;21.50;99.90;;;;;;4979243;28;20061;-70
2022/08/20 00:33:14;;;;;;;13.65;7.38;;;21.50;99.90;;;;;;4979181;28;20083;-70
2022/08/20 00:35:44;;;;;;;14.52;8.18;;;21.50;99.90;;;;;;4979406;28;20038;-70
2022/08/20 00:38:10;;;;;;;14.77;9.27;;;21.60;99.90;;;;;;4979307;28;20042;-70
2022/08/20 00:40:41;;;;;;;11.32;7.90;;;21.60;99.90;;;;;;4979132;28;20094;-70
2022/08/20 00:43:53;;;;;;;16.10;8.10;;;21.60;99.90;;;;;;4979100;28;20484;-70
2022/08/20 00:46:23;;;;;;;13.65;7.85;;;21.60;99.90;;;;;;4999745;28;20433;-70
2022/08/20 00:48:53;;;;;;;9.85;7.38;;;21.60;99.90;;;;;;4979387;28;20034;-70
2022/08/20 00:51:27;;;;;;;15.10;7.60;;;21.60;99.90;;;;;;4979026;28;20078;-71
2022/08/20 00:53:56;;;;;;;15.55;7.40;;;21.60;99.90;;;;;;4978888;28;20047;-70
2022/08/20 00:56:23;;;;;;;10.50;6.72;;;21.60;99.90;;;;;;4978729;28;20039;-70
2022/08/20 00:58:51;;;;;;;9.13;5.82;;;21.50;99.90;;;;;;4978858;28;20074;-70
2022/08/20 01:01:18;;;;;;;10.93;7.10;;;21.50;99.90;;;;;;4978901;28;20039;-70
2022/08/20 01:03:44;;;;;;;10.00;6.60;;;21.50;99.90;;;;;;4978734;28;20095;-70
2022/08/20 01:06:12;;;;;;;9.88;5.85;;;21.50;99.90;;;;;;4978886;28;20063;-70
2022/08/20 01:08:39;;;;;;;7.28;6.03;;;21.50;99.90;;;;;;4978525;28;20035;-70
2022/08/20 01:11:14;;;;;;;9.57;5.82;;;21.50;99.90;;;;;;4977996;28;20097;-70
2022/08/20 01:13:41;;;;;;;9.48;5.82;;;21.40;99.90;;;;;;4978690;28;20487;-70
2022/08/20 01:16:16;;;;;;;6.72;5.82;;;21.30;99.90;;;;;;4978597;28;20034;-70
2022/08/20 01:18:43;;;;;;;8.80;6.17;;;21.30;99.90;;;;;;4978762;28;20039;-70
2022/08/20 01:21:09;;;;;;;21.55;10.25;;;21.30;99.90;;;;;;4978190;28;20074;-70
2022/08/20 01:23:55;;;;;;;12.05;6.95;;;21.20;99.90;;;;;;4978454;28;20092;-71
2022/08/20 01:26:21;;;;;;;10.20;6.43;;;21.20;99.90;;;;;;4978060;28;20046;-70
2022/08/20 01:28:51;;;;;;;12.95;6.85;;;21.20;99.90;;;;;;4978245;28;20042;-70
2022/08/20 01:31:20;;;;;;;14.85;7.65;;;21.20;99.90;;;;;;4978073;28;20100;-71
2022/08/20 01:33:48;;;;;;;14.52;7.70;;;21.20;99.90;;;;;;4978044;28;20418;-70
2022/08/20 01:36:15;;;;;;;11.32;6.38;;;21.20;99.90;;;;;;4978438;28;20043;-70
2022/08/20 01:38:43;;;;;;;13.63;6.78;;;21.20;99.90;;;;;;4977966;28;20038;-70
2022/08/20 01:41:21;;;;;;;12.18;6.78;;;21.20;99.90;;;;;;4976931;28;20101;-70
2022/08/20 01:43:49;;;;;;;13.40;6.22;;;21.20;99.90;;;;;;4978206;28;20049;-70
2022/08/20 01:46:16;;;;;;;14.80;6.35;;;21.10;99.90;;;;;;4977933;28;20034;-70
2022/08/20 01:48:43;;;;;;;14.52;5.88;;;21.10;99.90;;;;;;4978135;28;20047;-70
2022/08/20 01:51:23;;;;;;;11.75;5.45;;;21.10;99.90;;;;;;4977765;28;20472;-70
2022/08/20 01:53:52;;;;;;;11.25;5.28;;;21.10;99.90;;;;;;4977914;28;20053;-70
2022/08/20 01:56:21;;;;;;;12.00;5.53;;;21.00;99.90;;;;;;4976371;28;20035;-70
2022/08/20 01:58:50;;;;;;;10.18;5.80;;;21.00;99.90;;;;;;4977737;28;20341;-70
2022/08/20 02:01:25;;;;;;;16.90;6.97;;;20.90;99.90;;;;;;4977853;28;20046;-70
2022/08/20 02:03:52;;;;;;;10.35;5.40;;;20.90;99.90;;;;;;4977841;28;20042;-70
2022/08/20 02:06:18;;;;;;;9.07;5.38;;;20.80;99.90;;;;;;4977752;28;20038;-70
2022/08/20 02:08:44;;;;;;;16.45;7.32;;;20.80;99.90;;;;;;4977819;28;20070;-70
2022/08/20 02:11:11;;;;;;;9.60;5.68;;;20.80;99.90;;;;;;4977941;28;20081;-70
2022/08/20 02:13:39;;;;;;;7.13;5.32;;;20.80;99.90;;;;;;4977633;28;20046;-70
2022/08/20 02:16:05;;;;;;;9.77;4.93;;;20.70;99.90;;;;;;4977664;28;20039;-70
2022/08/20 02:18:31;;;;;;;12.18;5.13;;;20.70;99.90;;;;;;4977642;28;20521;-70
2022/08/20 02:20:57;;;;;;;12.27;5.35;;;20.70;99.90;;;;;;4976356;28;20342;-70
2022/08/20 02:23:23;;;;;;;9.10;5.57;;;20.60;99.90;;;;;;4981105;28;20043;-70
2022/08/20 02:25:48;;;;;;;11.60;5.38;;;20.60;99.90;;;;;;4983326;28;20046;-70
2022/08/20 02:28:18;;;;;;;8.43;4.72;;;20.60;99.90;;;;;;4984237;28;20031;-70
2022/08/20 02:30:48;;;;;;;10.10;5.03;;;20.60;99.90;;;;;;4983754;28;20062;-70
2022/08/20 02:33:18;;;;;;;11.02;4.93;;;20.60;99.90;;;;;;4983929;28;20144;-70
2022/08/20 02:35:46;;;;;;;11.75;5.88;;;20.50;99.90;;;;;;4982333;28;20042;-70
2022/08/20 02:38:14;;;;;;;12.32;4.93;;;20.40;99.90;;;;;;4981879;28;20081;-72
2022/08/20 02:40:40;;;;;;;12.38;5.13;;;20.40;99.90;;;;;;4983859;28;20386;-70
2022/08/20 02:43:06;;;;;;;10.18;4.90;;;20.40;99.90;;;;;;4983842;28;20085;-70
2022/08/20 02:45:42;;;;;;;9.90;5.40;;;20.40;99.90;;;;;;4984020;28;20097;-70
2022/08/20 02:48:10;;;;;;;8.43;5.03;;;20.30;99.90;;;;;;4983835;28;20035;-70
2022/08/20 02:50:36;;;;;;;8.15;4.70;;;20.20;99.90;;;;;;4999161;28;20456;-70
2022/08/20 02:53:02;;;;;;;8.07;4.45;;;20.30;99.90;;;;;;4984030;28;20082;-70
2022/08/20 02:55:28;;;;;;;10.00;4.45;;;20.30;99.90;;;;;;4983423;28;20043;-70
2022/08/20 02:57:55;;;;;;;9.93;4.97;;;20.30;99.90;;;;;;4983881;28;20089;-70
2022/08/20 03:00:21;;;;;;;8.55;4.60;;;20.20;99.90;;;;;;4983459;28;20066;-70
2022/08/20 03:02:47;;;;;;;11.55;5.03;;;20.20;99.90;;;;;;4983716;28;20072;-70
2022/08/20 03:05:14;;;;;;;10.38;5.60;;;20.20;99.90;;;;;;4983474;28;20066;-70
2022/08/20 03:07:52;;;;;;;9.40;4.80;;;20.20;99.90;;;;;;4983796;28;20038;-70
2022/08/20 03:10:28;;;;;;;11.43;5.07;;;20.10;99.90;;;;;;4983789;28;20117;-70
2022/08/20 03:12:54;;;;;;;8.15;4.45;;;20.10;99.90;;;;;;4983526;28;20039;-70
2022/08/20 03:15:20;;;;;;;9.70;4.30;;;20.00;99.90;;;;;;4983535;28;20129;-70
2022/08/20 03:17:46;;;;;;;6.35;4.10;;;20.00;99.90;;;;;;4983319;28;20039;-70
2022/08/20 03:20:13;;;;;;;11.57;4.65;;;20.00;99.90;;;;;;4983733;28;20049;-70
2022/08/20 03:22:39;;;;;;;9.15;4.80;;;20.00;99.90;;;;;;4983369;28;20039;-70
2022/08/20 03:25:05;;;;;;;10.23;4.40;;;19.90;99.90;;;;;;4983248;28;20096;-70
2022/08/20 03:27:31;;;;;;;6.38;4.68;;;19.90;99.90;;;;;;4983339;28;20031;-70
2022/08/20 03:29:57;;;;;;;8.60;4.15;;;19.80;99.90;;;;;;4983319;28;20055;-70
2022/08/20 03:32:23;;;;;;;6.45;4.45;;;19.80;99.90;;;;;;4983563;28;20042;-70
2022/08/20 03:34:48;;;;;;;9.60;4.70;;;19.80;99.90;;;;;;4981124;28;20042;-70
2022/08/20 03:37:14;;;;;;;12.27;5.07;;;19.80;99.90;;;;;;4980338;28;20042;-70
2022/08/20 03:39:40;;;;;;;7.82;4.75;;;19.80;99.90;;;;;;4980426;28;20047;-70
2022/08/20 03:42:06;;;;;;;7.97;4.22;;;19.80;99.90;;;;;;4995709;28;20158;-70
2022/08/20 03:44:32;;;;;;;8.85;4.57;;;19.80;99.90;;;;;;4980244;28;20035;-70
2022/08/20 03:46:58;;;;;;;8.52;4.47;;;19.80;99.90;;;;;;4980120;28;20038;-70
2022/08/20 03:49:24;;;;;;;9.25;4.30;;;19.90;99.90;;;;;;4980363;28;20326;-70
2022/08/20 03:51:50;;;;;;;11.88;5.03;;;19.80;99.90;;;;;;4979926;28;20336;-70
2022/08/20 03:54:16;;;;;;;7.45;4.38;;;19.90;99.90;;;;;;4979982;28;20082;-70
2022/08/20 03:56:42;;;;;;;10.13;4.50;;;19.90;99.90;;;;;;4979420;28;20046;-70
2022/08/20 03:59:08;;;;;;;7.50;4.70;;;19.80;99.90;;;;;;4980223;28;20042;-70
2022/08/20 04:01:34;;;;;;;11.35;4.30;;;19.80;99.90;;;;;;4978649;28;20089;-70
2022/08/20 04:04:00;;;;;;;7.93;4.65;;;19.80;99.90;;;;;;4995356;28;20039;-70
2022/08/20 04:06:28;;;;;;;6.97;3.83;;;19.80;99.90;;;;;;4979697;28;20441;-70
2022/08/20 04:08:54;;;;;;;11.30;5.35;;;19.80;99.90;;;;;;4979707;28;20553;-70
2022/08/20 04:11:20;;;;;;;7.25;4.72;;;19.80;99.90;;;;;;4979968;28;20058;-70
2022/08/20 04:13:46;;;;;;;8.57;4.95;;;19.70;99.90;;;;;;4979793;28;20039;-70
2022/08/20 04:16:11;;;;;;;12.80;4.60;;;19.60;99.90;;;;;;4979508;28;20066;-70
2022/08/20 04:18:37;;;;;;;11.57;5.10;;;19.60;99.90;;;;;;4979635;28;20050;-70
2022/08/20 04:21:07;;;;;;;12.82;5.85;;;19.60;99.90;;;;;;4979631;28;20038;-70
2022/08/20 04:23:32;;;;;;;11.00;5.00;;;19.50;99.90;;;;;;4994620;28;20043;-70
2022/08/20 04:25:59;;;;;;;6.22;3.72;;;19.50;99.90;;;;;;4979348;28;20035;-70
2022/08/20 04:28:27;;;;;;;10.43;4.72;;;19.50;99.90;;;;;;4979409;28;20043;-70
2022/08/20 04:30:58;;;;;;;9.07;4.20;;;19.40;99.90;;;;;;4979205;28;20059;-70
2022/08/20 04:33:26;;;;;;;8.32;4.30;;;19.40;99.90;;;;;;4979228;28;20448;-70
2022/08/20 04:35:53;;;;;;;9.25;4.05;;;19.40;99.90;;;;;;4979318;28;20043;-70
2022/08/20 04:38:21;;;;;;;7.40;3.90;;;19.40;99.90;;;;;;4979363;28;20421;-69
2022/08/20 04:40:56;;;;;;;8.88;4.28;;;19.40;99.90;;;;;;4978953;28;20421;-70
2022/08/20 04:43:37;;;;;;;7.07;4.13;;;19.30;99.90;;;;;;4979409;28;20372;-69
2022/08/20 04:46:05;;;;;;;10.52;5.10;;;19.40;99.90;;;;;;4978069;28;20042;-69
2022/08/20 04:48:32;;;;;;;11.55;4.60;;;19.30;99.90;;;;;;4994148;28;20039;-69
2022/08/20 04:50:58;;;;;;;8.68;3.80;;;19.30;99.90;;;;;;4978849;28;20537;-70
2022/08/20 04:53:26;;;;;;;13.40;4.82;;;19.30;99.90;;;;;;4979152;28;20039;-70
2022/08/20 04:55:54;;;;;;;10.40;4.10;;;19.30;99.90;;;;;;4978271;28;20093;-69
2022/08/20 04:58:29;;;;;;;8.10;4.43;;;19.30;99.90;;;;;;4978978;28;20058;-69
2022/08/20 05:00:57;;;;;;;10.40;3.75;;;19.30;99.90;;;;;;4978998;28;20035;-70
2022/08/20 05:03:24;;;;;;;8.88;3.83;;;19.30;99.90;;;;;;4979008;28;20089;-70
2022/08/20 05:05:50;;;;;;;8.60;4.05;;;19.30;99.90;;;;;;4978642;28;20038;-69
2022/08/20 05:08:19;;;;;;;9.70;4.00;;;19.30;99.90;;;;;;4978538;28;20499;-70
2022/08/20 05:10:45;;;;;;;8.02;3.60;;;19.30;99.90;;;;;;4978613;28;20054;-70
2022/08/20 05:13:11;;;;;;;10.38;3.60;;;19.20;99.90;;;;;;4978501;28;20039;-70
2022/08/20 05:15:38;;;;;;;9.32;3.40;;;19.10;99.90;;;;;;4978775;28;20051;-70
2022/08/20 05:18:06;;;;;;;8.10;4.35;;;19.10;99.90;;;;;;4993608;28;20167;-69
2022/08/20 05:20:38;;;;;;;7.95;3.50;;;19.10;99.90;;;;;;4978672;28;20117;-69
2022/08/20 05:23:06;;;;;;;8.00;3.20;;;19.10;99.90;;;;;;4978466;28;20114;-70
2022/08/20 05:25:32;;;;;;;7.65;3.35;;;19.20;99.90;;;;;;4977786;28;20038;-70
2022/08/20 05:28:00;;;;;;;6.65;3.55;;;19.10;99.90;;;;;;4978494;28;20038;-70
2022/08/20 05:30:35;;;;;;;10.13;3.58;;;19.10;99.90;;;;;;4977917;28;20051;-69
2022/08/20 05:33:02;;;;;;;7.05;3.47;;;19.00;99.90;;;;;;4977540;28;20038;-69
2022/08/20 05:35:28;;;;;;;6.47;3.45;;;18.90;99.90;;;;;;4978140;28;20114;-70
2022/08/20 05:37:55;;;;;;;8.23;3.97;;;19.00;99.90;;;;;;4978406;28;20039;-69
2022/08/20 05:40:21;;;;;;;6.72;3.17;;;19.00;99.90;;;;;;4978027;28;20043;-69
2022/08/20 05:42:47;;;;;;;9.23;3.95;;;19.00;99.90;;;;;;4978288;28;20096;-70
2022/08/20 05:45:15;;;;;;;7.18;3.15;;;19.00;99.90;;;;;;4977979;28;20337;-69
2022/08/20 05:47:41;;;;;;;6.35;3.42;;;19.00;99.90;;;;;;4978021;28;20054;-69
2022/08/20 05:50:08;;;;;;;6.32;2.92;;;19.00;99.90;;;;;;4977779;28;20417;-70
2022/08/20 05:52:34;;;;;;;7.15;3.13;;;19.00;99.90;;;;;;4978022;28;20081;-70
2022/08/20 05:55:00;;;;;;;6.50;3.17;;;19.10;99.90;;;;;;4977749;28;20386;-78
2022/08/20 05:57:25;;;;;;;5.85;2.88;;;19.10;99.90;;;;;;4977541;28;20085;-69
2022/08/20 05:59:52;;;;;;;7.55;2.85;;;19.20;99.90;;;;;;4978045;28;20130;-70
2022/08/20 06:05:02;;;;;;;5.97;2.65;;;19.40;99.90;;;;;;4978064;28;20097;-69
2022/08/20 06:07:28;;;;;;;7.18;2.80;;;19.60;99.90;;;;;;4977779;28;20084;-70
2022/08/20 06:09:54;;;;;;;11.73;2.85;;;19.70;99.90;;;;;;4977783;28;20430;-70
2022/08/20 06:12:19;;;;;;;6.32;3.10;;;19.80;99.90;;;;;;4977933;28;20054;-70
2022/08/20 06:14:46;;;;;;;6.97;2.65;;;19.90;99.90;;;;;;4977831;28;20093;-70
2022/08/20 06:17:16;;;;;;;7.10;2.35;;;19.90;99.90;;;;;;4977786;28;20429;-70
2022/08/20 06:19:44;;;;;;;4.68;2.50;;;20.10;99.90;;;;;;4977745;28;20042;-70
2022/08/20 06:22:10;;;;;;;9.50;2.20;;;20.20;99.90;;;;;;4977795;28;20125;-69
2022/08/20 06:24:35;;;;;;;12.23;2.60;;;20.30;99.90;;;;;;4977581;28;20377;-70
2022/08/20 06:27:03;;;;;;;6.97;2.22;;;20.30;99.90;;;;;;4977186;28;20098;-69
2022/08/20 06:29:32;;;;;;;6.85;2.55;;;20.30;99.90;;;;;;4977377;28;20046;-70
2022/08/20 06:31:58;;;;;;;7.65;2.50;;;20.40;99.90;;;;;;4976550;28;20047;-70
2022/08/20 06:34:27;;;;;;;6.57;1.98;;;20.50;99.90;;;;;;4978045;28;20405;-70
2022/08/20 06:36:53;;;;;;;12.63;2.15;;;20.50;99.90;;;;;;4977499;28;20051;-70
2022/08/20 06:39:19;;;;;;;10.13;2.10;;;20.40;99.90;;;;;;4977543;28;20085;-69
2022/08/20 06:41:45;;;;;;;7.38;2.00;;;20.30;99.90;;;;;;4992483;28;20074;-70
2022/08/20 06:44:10;;;;;;;6.18;1.70;;;20.50;99.90;;;;;;4977317;28;20046;-73
2022/08/20 06:46:37;;;;;;;8.77;2.08;;;20.60;99.90;;;;;;4977557;28;20034;-70
2022/08/20 06:49:07;;;;;;;9.20;2.05;;;20.70;99.90;;;;;;4977378;28;20122;-70
2022/08/20 06:51:33;;;;;;;6.70;1.55;;;20.90;99.90;;;;;;4977475;28;20445;-70
2022/08/20 06:53:59;;;;;;;7.93;2.00;;;20.80;99.90;;;;;;4977321;28;20317;-69
2022/08/20 06:56:25;;;;;;;10.77;1.90;;;20.90;99.90;;;;;;4976978;28;20117;-70
2022/08/20 06:58:50;;;;;;;7.75;1.27;;;21.10;99.90;;;;;;4992354;28;20333;-70
2022/08/20 07:01:20;;;;;;;11.00;2.10;;;21.20;99.90;;;;;;4977403;28;20049;-70
2022/08/20 07:03:48;;;;;;;6.82;1.50;;;21.20;99.90;;;;;;4977267;28;20119;-69
2022/08/20 07:06:15;;;;;;;6.60;1.70;;;21.20;99.90;;;;;;4977419;28;20039;-70
2022/08/20 07:08:42;;;;;;;12.00;1.38;;;21.30;99.90;;;;;;4976302;28;20488;-69
2022/08/20 07:11:08;;;;;;;6.68;1.73;;;21.30;99.90;;;;;;4995695;28;20333;-69
2022/08/20 07:13:37;;;;;;;8.95;1.67;;;21.30;99.90;;;;;;4980526;28;20194;-69
2022/08/20 07:16:04;;;;;;;6.40;1.58;;;21.40;99.90;;;;;;4980917;28;20045;-70
2022/08/20 07:18:30;;;;;;;8.55;1.50;;;21.50;99.90;;;;;;4980595;28;20082;-70
2022/08/20 07:20:56;;;;;;;7.18;1.45;;;21.50;99.90;;;;;;4980485;28;20035;-68
2022/08/20 07:23:24;;;;;;;8.07;1.60;;;21.40;99.90;;;;;;4981101;28;20043;-68
2022/08/20 07:25:49;;;;;;;6.63;1.55;;;21.50;99.90;;;;;;4997956;28;20606;-71
2022/08/20 07:28:20;;;;;;;7.00;1.20;;;21.70;99.90;;;;;;4980495;28;20038;-70
2022/08/20 07:33:32;;;;;;;8.10;1.00;;;21.60;99.90;;;;;;4980663;28;20047;-70
2022/08/20 07:36:00;;;;;;;9.48;1.33;;;21.70;99.90;;;;;;4980462;28;20035;-70
2022/08/20 07:38:28;;;;;;;6.47;1.00;;;21.80;99.90;;;;;;4980139;28;20046;-70
2022/08/20 07:40:57;;;;;;;6.05;1.10;;;21.60;99.90;;;;;;4980280;28;20051;-69
2022/08/20 07:43:24;;;;;;;9.05;1.58;;;21.50;99.90;;;;;;4980312;28;20162;-69
2022/08/20 07:45:51;;;;;;;10.15;1.50;;;21.50;99.90;;;;;;4980347;28;20461;-69
2022/08/20 07:48:17;;;;;;;7.65;1.40;;;21.30;99.90;;;;;;4980110;28;20117;-70
2022/08/20 07:50:43;;;;;;;6.03;1.15;;;21.20;99.90;;;;;;4995537;28;20101;-69
2022/08/20 07:53:10;;;;;;;5.60;1.25;;;21.20;99.90;;;;;;4980029;28;20055;-69
2022/08/20 07:55:36;;;;;;;8.43;1.20;;;21.20;99.90;;;;;;4979744;28;20117;-68
2022/08/20 07:58:10;;;;;;;5.65;1.17;;;21.30;99.90;;;;;;4980163;28;20042;-69
2022/08/20 08:00:36;;;;;;;7.97;1.65;;;21.40;99.90;;;;;;4979908;28;20102;-69
2022/08/20 08:03:02;;;;;;;5.40;1.35;;;21.10;99.90;;;;;;4980069;28;20376;-69
2022/08/20 08:05:30;;;;;;;9.18;1.15;;;21.30;99.90;;;;;;4978693;28;20046;-69
2022/08/20 08:07:57;;;;;;;4.25;0.80;;;21.40;99.90;;;;;;4980028;28;20425;-68
2022/08/20 08:10:24;;;;;;;8.68;1.23;;;21.50;99.90;;;;;;4995001;28;20126;-69
2022/08/20 08:12:53;;;;;;;8.27;1.38;;;21.80;99.90;;;;;;4979869;28;20050;-69
2022/08/20 08:15:26;;;;;;;6.30;1.02;;;21.90;99.90;;;;;;4979679;28;20456;-69
2022/08/20 08:17:55;;;;;;;9.07;1.55;;;21.80;99.90;;;;;;4979754;28;20034;-69
2022/08/20 08:20:22;;;;;;;9.40;1.20;;;21.90;99.90;;;;;;4978198;28;20127;-69
2022/08/20 08:22:48;;;;;;;9.82;1.40;;;21.90;99.90;;;;;;4979592;28;20050;-69
2022/08/20 08:25:15;;;;;;;7.93;1.42;;;21.90;99.90;;;;;;4979316;28;20042;-69
2022/08/20 08:27:42;;;;;;;3.78;0.90;;;22.10;99.90;;;;;;4994544;28;20512;-68
2022/08/20 08:30:09;;;;;;;7.75;1.13;;;22.30;99.90;;;;;;4994359;28;20054;-68
2022/08/20 08:32:36;;;;;;;7.63;1.20;;;22.10;99.90;;;;;;4979482;28;20142;-70
2022/08/20 08:35:07;;;;;;;6.13;0.70;;;22.10;99.90;;;;;;4994427;28;20094;-69
2022/08/20 08:37:33;;;;;;;7.05;1.02;;;22.20;99.90;;;;;;4979723;28;20042;-69
2022/08/20 08:40:00;;;;;;;5.40;0.98;;;22.30;99.90;;;;;;4979252;28;20045;-69
2022/08/20 08:42:32;;;;;;;5.93;1.00;;;22.30;99.90;;;;;;4978434;28;20046;-69
2022/08/20 08:44:59;;;;;;;4.63;0.80;;;22.50;99.90;;;;;;4978487;28;20047;-68
2022/08/20 08:47:33;;;;;;;6.90;0.90;;;22.50;99.90;;;;;;4994095;28;20097;-70
2022/08/20 08:50:01;;;;;;;6.07;0.80;;;22.70;99.90;;;;;;4994357;28;20038;-66
2022/08/20 08:52:34;;;;;;;5.90;0.90;;;22.60;99.90;;;;;;4979012;28;20047;-67
2022/08/20 08:55:03;;;;;;;4.10;0.80;;;22.60;99.90;;;;;;4979319;28;20049;-67
2022/08/20 08:57:30;;;;;;;8.18;1.00;;;22.70;99.90;;;;;;4978641;28;20057;-67
2022/08/20 09:00:00;;;;;;;6.07;1.23;;;22.60;99.90;;;;;;4978732;28;20043;-67
2022/08/20 09:02:27;;;;;;;4.75;0.80;;;22.70;99.90;;;;;;4978614;28;20052;-66
2022/08/20 09:04:58;;;;;;;8.73;1.10;;;22.80;99.50;;;;;;4978898;28;20129;-67
2022/08/20 09:07:33;;;;;;;4.38;0.77;;;22.60;99.80;;;;;;4979008;28;20113;-67
2022/08/20 09:10:01;;;;;;;6.03;0.85;;;22.60;99.30;;;;;;4977675;28;20068;-68
2022/08/20 09:12:26;;;;;;;9.80;1.67;;;22.70;99.30;;;;;;4978446;28;20433;-68
2022/08/20 09:14:53;;;;;;;8.55;1.15;;;22.70;99.00;;;;;;4978620;28;20057;-68
2022/08/20 09:17:20;;;;;;;6.25;0.90;;;22.70;99.10;;;;;;4978506;28;20053;-68
2022/08/20 09:19:46;;;;;;;7.85;0.98;;;22.70;99.70;;;;;;4978603;28;20038;-68
2022/08/20 09:22:16;;;;;;;8.73;1.02;;;22.90;99.60;;;;;;4978384;28;20051;-69
2022/08/20 09:24:42;;;;;;;2.58;0.98;;;23.10;99.40;;;;;;4978079;28;20050;-69
2022/08/20 09:27:08;;;;;;;4.40;0.90;;;23.00;99.70;;;;;;4978146;28;20664;-69
2022/08/20 09:29:35;;;;;;;4.38;0.85;;;23.30;99.40;;;;;;4978122;28;20042;-68
2022/08/20 09:32:07;;;;;;;9.27;1.35;;;23.40;98.70;;;;;;4977933;28;20054;-68
2022/08/20 09:34:38;;;;;;;6.00;1.05;;;23.00;98.20;;;;;;4977674;28;20325;-68
2022/08/20 09:37:04;;;;;;;8.82;1.38;;;23.00;99.00;;;;;;4978150;28;20050;-68
2022/08/20 09:39:30;;;;;;;5.22;0.90;;;23.00;98.30;;;;;;4978244;28;20046;-68
2022/08/20 09:42:16;;;;;;;8.95;1.13;;;23.10;99.40;;;;;;4977903;28;20043;-69
2022/08/20 09:44:44;;;;;;;5.43;0.85;;;23.00;98.20;;;;;;4978342;28;20047;-68
2022/08/20 09:47:10;;;;;;;7.18;1.55;;;23.00;98.20;;;;;;4978138;28;20377;-69
2022/08/20 09:49:36;;;;;;;4.07;1.17;;;23.00;98.40;;;;;;4977884;28;20035;-88
2022/08/20 09:52:05;;;;;;;3.97;0.73;;;23.10;98.90;;;;;;4993337;28;20125;-88
2022/08/20 09:54:32;;;;;;;5.30;1.02;;;22.90;98.20;;;;;;4993515;28;20046;-69
2022/08/20 09:57:01;;;;;;;6.95;1.00;;;22.70;98.20;;;;;;4976660;28;20049;-68
2022/08/20 09:59:29;;;;;;;5.90;0.90;;;22.90;97.90;;;;;;4976125;28;20425;-68
2022/08/20 10:01:55;;;;;;;7.53;0.85;;;23.00;97.90;;;;;;4977642;28;20050;-68
2022/08/20 10:04:20;;;;;;;3.10;0.80;;;23.40;98.20;;;;;;4976957;28;20047;-68
2022/08/20 10:06:46;;;;;;;5.93;1.10;;;23.60;98.30;;;;;;4977644;28;20128;-68
2022/08/20 10:09:12;;;;;;;5.60;1.17;;;23.70;98.60;;;;;;4977977;28;20070;-68
2022/08/20 10:11:38;;;;;;;4.45;0.90;;;24.10;98.30;;;;;;4977568;28;20388;-68
2022/08/20 10:14:04;;;;;;;5.40;1.10;;;24.30;98.40;;;;;;4977921;28;20042;-68
2022/08/20 10:16:30;;;;;;;5.55;1.15;;;24.20;98.40;;;;;;4977692;28;20522;-68
2022/08/20 10:18:56;;;;;;;6.82;1.05;;;24.10;97.50;;;;;;4977831;28;20043;-69
2022/08/20 10:21:22;;;;;;;8.63;1.00;;;24.40;97.50;;;;;;4977421;28;20088;-68
2022/08/20 10:23:48;;;;;;;7.82;0.90;;;24.50;96.80;;;;;;4977858;28;20066;-68
2022/08/20 10:26:15;;;;;;;7.40;1.27;;;24.40;97.70;;;;;;4977214;28;20050;-68
2022/08/20 10:28:42;;;;;;;6.10;1.05;;;24.80;97.60;;;;;;4977386;28;20046;-68
2022/08/20 10:31:10;;;;;;;10.40;1.27;;;24.90;97.20;;;;;;4977410;28;20054;-68
2022/08/20 10:33:37;;;;;;;7.00;1.10;;;25.00;97.60;;;;;;4977352;28;20319;-68
2022/08/20 10:36:15;;;;;;;7.07;1.17;;;25.20;97.70;;;;;;4977690;28;20496;-69
2022/08/20 10:38:42;;;;;;;6.55;1.10;;;24.80;97.90;;;;;;4977637;28;20047;-73
2022/08/20 10:41:09;;;;;;;6.82;1.02;;;24.70;98.10;;;;;;4992516;28;20035;-67
2022/08/20 10:43:34;;;;;;;3.53;0.85;;;24.60;97.80;;;;;;4977987;28;20043;-66
2022/08/20 10:46:00;;;;;;;7.93;1.40;;;24.70;97.20;;;;;;4981445;28;20219;-68
2022/08/20 10:48:26;;;;;;;3.85;0.90;;;24.60;96.90;;;;;;4981212;28;20050;-68
2022/08/20 10:50:52;;;;;;;6.43;1.00;;;24.80;97.00;;;;;;4981298;28;20101;-68
2022/08/20 10:53:18;;;;;;;6.88;1.45;;;25.10;96.70;;;;;;4981482;28;20042;-68
2022/08/20 10:55:44;;;;;;;4.90;1.10;;;25.40;96.50;;;;;;4980788;28;20058;-68
2022/08/20 10:58:11;;;;;;;7.85;1.38;;;25.60;97.10;;;;;;4981162;28;20096;-67
2022/08/20 11:00:38;;;;;;;7.47;1.08;;;26.00;97.00;;;;;;4979994;28;20055;-81
2022/08/20 11:03:04;;;;;;;5.85;1.00;;;25.60;96.10;;;;;;4980141;28;20053;-67
2022/08/20 11:05:29;;;;;;;6.75;1.20;;;24.90;97.00;;;;;;4981068;28;20142;-68
2022/08/20 11:07:55;;;;;;;6.00;1.10;;;25.00;96.70;;;;;;4979880;28;20043;-67
2022/08/20 11:10:21;;;;;;;6.68;1.38;;;24.90;96.70;;;;;;4981005;28;20039;-67
2022/08/20 11:12:47;;;;;;;6.25;1.00;;;25.10;96.70;;;;;;4980999;28;20039;-67
2022/08/20 11:15:14;;;;;;;5.55;1.08;;;25.10;96.90;;;;;;4980802;28;20041;-67
2022/08/20 11:17:41;;;;;;;5.68;1.10;;;24.90;96.50;;;;;;4980790;28;20208;-70
2022/08/20 11:20:09;;;;;;;5.53;0.88;;;24.70;96.70;;;;;;4980945;28;20071;-68
2022/08/20 11:22:35;;;;;;;8.85;1.17;;;24.90;96.40;;;;;;4980598;28;20062;-69
2022/08/20 11:25:03;;;;;;;7.13;1.20;;;25.00;96.40;;;;;;4979670;28;20046;-69
2022/08/20 11:27:39;;;;;;;6.03;0.95;;;25.20;96.30;;;;;;4980371;28;20126;-69
2022/08/20 11:30:07;;;;;;;5.88;1.17;;;25.30;96.20;;;;;;4980361;28;20062;-69
2022/08/20 11:32:33;;;;;;;6.90;1.65;;;25.30;96.50;;;;;;4980418;28;20504;-69
2022/08/20 11:34:59;;;;;;;8.13;1.20;;;25.70;96.90;;;;;;4982373;28;20038;-69
2022/08/20 11:37:25;;;;;;;5.78;1.17;;;25.90;96.70;;;;;;4980343;28;20323;-68
2022/08/20 11:39:51;;;;;;;4.47;1.17;;;25.80;97.40;;;;;;4980145;28;20453;-69
2022/08/20 11:42:17;;;;;;;9.05;1.63;;;25.70;96.70;;;;;;4980101;28;20038;-68
2022/08/20 11:44:42;;;;;;;8.82;1.83;;;25.20;97.00;;;;;;4980266;28;20049;-68
2022/08/20 11:47:19;;;;;;;6.93;1.20;;;24.90;96.60;;;;;;4980357;28;20123;-69
2022/08/20 11:49:45;;;;;;;7.18;1.42;;;24.90;96.80;;;;;;4980448;28;20043;-67
2022/08/20 11:52:10;;;;;;;13.32;1.50;;;25.40;97.10;;;;;;4980174;28;20053;-67
2022/08/20 11:54:39;;;;;;;9.15;1.83;;;25.70;97.60;;;;;;4980210;28;20035;-68
2022/08/20 11:57:05;;;;;;;7.20;1.30;;;25.80;96.70;;;;;;4978833;28;20039;-69
2022/08/20 11:59:31;;;;;;;8.57;1.65;;;26.40;96.90;;;;;;4980243;28;20061;-69
2022/08/20 12:01:57;;;;;;;7.53;1.42;;;26.70;96.50;;;;;;4979756;28;20042;-68
2022/08/20 12:04:23;;;;;;;7.43;1.45;;;26.40;96.50;;;;;;4980088;28;20038;-69
2022/08/20 12:06:49;;;;;;;8.48;1.30;;;26.40;96.60;;;;;;4979933;28;20045;-70
2022/08/20 12:09:16;;;;;;;5.60;1.20;;;26.30;96.40;;;;;;4977334;28;20106;-70
2022/08/20 12:11:42;;;;;;;7.65;1.50;;;26.10;96.50;;;;;;4979899;28;20039;-69
2022/08/20 12:14:07;;;;;;;5.97;1.25;;;26.10;95.90;;;;;;4979887;28;20050;-69
2022/08/20 12:16:33;;;;;;;8.68;1.63;;;25.90;96.50;;;;;;4979938;28;20050;-69
2022/08/20 12:18:59;;;;;;;6.93;1.45;;;26.00;96.10;;;;;;4979520;28;20039;-69
2022/08/20 12:21:24;;;;;;;7.03;1.20;;;25.70;96.40;;;;;;4979368;28;20145;-69
2022/08/20 12:23:50;;;;;;;7.93;1.35;;;25.50;96.20;;;;;;4978477;28;20057;-69
2022/08/20 12:26:16;;;;;;;6.90;1.17;;;25.50;96.30;;;;;;4979097;28;20039;-69
2022/08/20 12:28:41;;;;;;;7.80;1.40;;;25.60;96.30;;;;;;4979699;28;20042;-69
2022/08/20 12:31:07;;;;;;;5.38;1.27;;;25.50;96.30;;;;;;4979313;28;20058;-69
2022/08/20 12:33:33;;;;;;;7.20;1.20;;;25.20;96.30;;;;;;4979563;28;20118;-69
2022/08/20 12:35:59;;;;;;;3.70;1.02;;;24.90;96.40;;;;;;4979428;28;20480;-69
2022/08/20 12:38:25;;;;;;;10.18;1.40;;;24.80;96.20;;;;;;4979607;28;20094;-69
2022/08/20 12:40:51;;;;;;;8.43;1.55;;;25.00;96.60;;;;;;4979061;28;20050;-69
2022/08/20 12:43:16;;;;;;;5.53;1.20;;;25.10;96.70;;;;;;4979092;28;20311;-69
2022/08/20 12:45:42;;;;;;;6.35;1.00;;;25.10;96.50;;;;;;4979371;28;20045;-69
2022/08/20 12:48:11;;;;;;;4.47;1.25;;;25.20;96.80;;;;;;4979122;28;20065;-69
2022/08/20 12:50:39;;;;;;;8.07;1.45;;;25.50;96.50;;;;;;4979323;28;20130;-69